sensor_id;sensor_type;location;lat;lon;timestamp;P1;durP1;ratioP1;P2;durP2;ratioP2
18407;SDS011;9330;52.210;21.174;2023-04-24T00:01:26;6.90;;;5.97;;
18407;SDS011;9330;52.210;21.174;2023-04-24T00:03:54;7.47;;;6.40;;
18407;SDS011;9330;52.210;21.174;2023-04-24T00:06:26;8.30;;;6.40;;
18407;SDS011;9330;52.210;21.174;2023-04-24T00:08:57;7.40;;;6.35;;
18407;SDS011;9330;52.210;21.174;2023-04-24T00:11:25;6.95;;;6.00;;
18407;SDS011;9330;52.210;21.174;2023-04-24T00:13:52;9.40;;;6.80;;
18407;SDS011;9330;52.210;21.174;2023-04-24T00:16:19;7.22;;;6.10;;
18407;SDS011;9330;52.210;21.174;2023-04-24T00:18:46;7.90;;;6.25;;
18407;SDS011;9330;52.210;21.174;2023-04-24T00:21:13;9.18;;;6.50;;
18407;SDS011;9330;52.210;21.174;2023-04-24T00:23:42;9.45;;;6.45;;
18407;SDS011;9330;52.210;21.174;2023-04-24T00:26:09;8.27;;;6.65;;
18407;SDS011;9330;52.210;21.174;2023-04-24T00:28:36;10.23;;;6.75;;
18407;SDS011;9330;52.210;21.174;2023-04-24T00:31:03;8.98;;;6.28;;
18407;SDS011;9330;52.210;21.174;2023-04-24T00:33:30;9.07;;;6.15;;
18407;SDS011;9330;52.210;21.174;2023-04-24T00:35:57;8.75;;;6.75;;
18407;SDS011;9330;52.210;21.174;2023-04-24T00:38:24;7.65;;;6.10;;
18407;SDS011;9330;52.210;21.174;2023-04-24T00:40:53;8.23;;;6.57;;
18407;SDS011;9330;52.210;21.174;2023-04-24T00:43:20;7.03;;;5.95;;
18407;SDS011;9330;52.210;21.174;2023-04-24T00:45:47;7.15;;;5.90;;
18407;SDS011;9330;52.210;21.174;2023-04-24T00:48:14;9.23;;;6.30;;
18407;SDS011;9330;52.210;21.174;2023-04-24T00:50:41;8.55;;;6.72;;
18407;SDS011;9330;52.210;21.174;2023-04-24T00:53:08;9.90;;;6.65;;
18407;SDS011;9330;52.210;21.174;2023-04-24T00:55:35;10.15;;;6.85;;
18407;SDS011;9330;52.210;21.174;2023-04-24T00:58:05;8.35;;;6.82;;
18407;SDS011;9330;52.210;21.174;2023-04-24T01:00:32;8.18;;;6.60;;
18407;SDS011;9330;52.210;21.174;2023-04-24T01:02:59;8.15;;;6.65;;
18407;SDS011;9330;52.210;21.174;2023-04-24T01:05:30;8.43;;;6.38;;
18407;SDS011;9330;52.210;21.174;2023-04-24T01:07:59;9.35;;;6.72;;
18407;SDS011;9330;52.210;21.174;2023-04-24T01:10:27;7.95;;;6.40;;
18407;SDS011;9330;52.210;21.174;2023-04-24T01:12:57;7.57;;;6.60;;
18407;SDS011;9330;52.210;21.174;2023-04-24T01:15:26;8.75;;;6.75;;
18407;SDS011;9330;52.210;21.174;2023-04-24T01:17:53;8.57;;;6.75;;
18407;SDS011;9330;52.210;21.174;2023-04-24T01:20:20;8.48;;;6.63;;
18407;SDS011;9330;52.210;21.174;2023-04-24T01:22:49;9.82;;;7.30;;
18407;SDS011;9330;52.210;21.174;2023-04-24T01:25:16;9.55;;;6.65;;
18407;SDS011;9330;52.210;21.174;2023-04-24T01:27:43;8.00;;;6.28;;
18407;SDS011;9330;52.210;21.174;2023-04-24T01:30:11;8.90;;;6.88;;
18407;SDS011;9330;52.210;21.174;2023-04-24T01:32:39;7.38;;;6.60;;
18407;SDS011;9330;52.210;21.174;2023-04-24T01:35:09;9.65;;;6.55;;
18407;SDS011;9330;52.210;21.174;2023-04-24T01:37:36;9.25;;;7.25;;
18407;SDS011;9330;52.210;21.174;2023-04-24T01:40:06;8.50;;;6.68;;
18407;SDS011;9330;52.210;21.174;2023-04-24T01:42:34;9.25;;;7.32;;
18407;SDS011;9330;52.210;21.174;2023-04-24T01:45:02;10.35;;;6.88;;
18407;SDS011;9330;52.210;21.174;2023-04-24T01:47:30;10.02;;;7.05;;
18407;SDS011;9330;52.210;21.174;2023-04-24T01:49:57;8.27;;;6.35;;
18407;SDS011;9330;52.210;21.174;2023-04-24T01:52:24;9.75;;;7.25;;
18407;SDS011;9330;52.210;21.174;2023-04-24T01:54:52;9.13;;;7.40;;
18407;SDS011;9330;52.210;21.174;2023-04-24T01:57:22;10.27;;;6.75;;
18407;SDS011;9330;52.210;21.174;2023-04-24T01:59:49;9.48;;;7.03;;
18407;SDS011;9330;52.210;21.174;2023-04-24T02:02:17;10.35;;;6.97;;
18407;SDS011;9330;52.210;21.174;2023-04-24T02:04:46;8.00;;;7.05;;
18407;SDS011;9330;52.210;21.174;2023-04-24T02:07:13;7.80;;;6.60;;
18407;SDS011;9330;52.210;21.174;2023-04-24T02:09:39;12.13;;;7.35;;
18407;SDS011;9330;52.210;21.174;2023-04-24T02:12:07;10.13;;;7.40;;
18407;SDS011;9330;52.210;21.174;2023-04-24T02:14:35;8.05;;;6.90;;
18407;SDS011;9330;52.210;21.174;2023-04-24T02:17:02;9.50;;;7.43;;
18407;SDS011;9330;52.210;21.174;2023-04-24T02:19:29;10.10;;;7.28;;
18407;SDS011;9330;52.210;21.174;2023-04-24T02:21:56;8.70;;;7.10;;
18407;SDS011;9330;52.210;21.174;2023-04-24T02:24:23;10.27;;;7.47;;
18407;SDS011;9330;52.210;21.174;2023-04-24T02:26:50;9.95;;;7.28;;
18407;SDS011;9330;52.210;21.174;2023-04-24T02:29:17;8.43;;;7.32;;
18407;SDS011;9330;52.210;21.174;2023-04-24T02:31:46;9.02;;;7.03;;
18407;SDS011;9330;52.210;21.174;2023-04-24T02:34:13;8.65;;;7.07;;
18407;SDS011;9330;52.210;21.174;2023-04-24T02:36:39;8.90;;;7.18;;
18407;SDS011;9330;52.210;21.174;2023-04-24T02:39:06;8.82;;;6.40;;
18407;SDS011;9330;52.210;21.174;2023-04-24T02:41:33;8.90;;;7.25;;
18407;SDS011;9330;52.210;21.174;2023-04-24T02:44:00;9.05;;;7.40;;
18407;SDS011;9330;52.210;21.174;2023-04-24T02:46:27;11.45;;;7.47;;
18407;SDS011;9330;52.210;21.174;2023-04-24T02:48:55;10.25;;;7.65;;
18407;SDS011;9330;52.210;21.174;2023-04-24T02:51:22;9.73;;;7.10;;
18407;SDS011;9330;52.210;21.174;2023-04-24T02:53:50;10.68;;;7.20;;
18407;SDS011;9330;52.210;21.174;2023-04-24T02:56:17;8.68;;;6.82;;
18407;SDS011;9330;52.210;21.174;2023-04-24T02:58:43;8.20;;;6.47;;
18407;SDS011;9330;52.210;21.174;2023-04-24T03:01:10;9.68;;;7.63;;
18407;SDS011;9330;52.210;21.174;2023-04-24T03:03:37;8.90;;;6.63;;
18407;SDS011;9330;52.210;21.174;2023-04-24T03:06:06;8.88;;;7.05;;
18407;SDS011;9330;52.210;21.174;2023-04-24T03:08:34;9.82;;;6.93;;
18407;SDS011;9330;52.210;21.174;2023-04-24T03:11:02;8.13;;;7.13;;
18407;SDS011;9330;52.210;21.174;2023-04-24T03:13:29;9.70;;;7.90;;
18407;SDS011;9330;52.210;21.174;2023-04-24T03:15:56;10.02;;;6.80;;
18407;SDS011;9330;52.210;21.174;2023-04-24T03:18:23;8.85;;;7.13;;
18407;SDS011;9330;52.210;21.174;2023-04-24T03:20:50;9.07;;;7.60;;
18407;SDS011;9330;52.210;21.174;2023-04-24T03:23:18;8.85;;;7.72;;
18407;SDS011;9330;52.210;21.174;2023-04-24T03:25:45;8.27;;;7.35;;
18407;SDS011;9330;52.210;21.174;2023-04-24T03:28:13;9.00;;;7.05;;
18407;SDS011;9330;52.210;21.174;2023-04-24T03:30:40;12.45;;;7.90;;
18407;SDS011;9330;52.210;21.174;2023-04-24T03:33:07;8.98;;;7.07;;
18407;SDS011;9330;52.210;21.174;2023-04-24T03:35:34;8.52;;;7.63;;
18407;SDS011;9330;52.210;21.174;2023-04-24T03:38:01;9.00;;;7.47;;
18407;SDS011;9330;52.210;21.174;2023-04-24T03:40:31;10.68;;;7.40;;
18407;SDS011;9330;52.210;21.174;2023-04-24T03:42:58;9.93;;;7.45;;
18407;SDS011;9330;52.210;21.174;2023-04-24T03:45:25;9.07;;;7.20;;
18407;SDS011;9330;52.210;21.174;2023-04-24T03:47:52;9.85;;;7.82;;
18407;SDS011;9330;52.210;21.174;2023-04-24T03:50:19;8.68;;;7.25;;
18407;SDS011;9330;52.210;21.174;2023-04-24T03:52:46;9.85;;;8.32;;
18407;SDS011;9330;52.210;21.174;2023-04-24T03:55:13;9.20;;;7.43;;
18407;SDS011;9330;52.210;21.174;2023-04-24T03:57:41;9.43;;;6.85;;
18407;SDS011;9330;52.210;21.174;2023-04-24T04:00:09;11.43;;;6.93;;
18407;SDS011;9330;52.210;21.174;2023-04-24T04:02:37;9.07;;;6.80;;
18407;SDS011;9330;52.210;21.174;2023-04-24T04:05:04;10.18;;;7.68;;
18407;SDS011;9330;52.210;21.174;2023-04-24T04:07:31;9.80;;;7.60;;
18407;SDS011;9330;52.210;21.174;2023-04-24T04:09:58;10.57;;;7.93;;
18407;SDS011;9330;52.210;21.174;2023-04-24T04:12:25;11.40;;;7.32;;
18407;SDS011;9330;52.210;21.174;2023-04-24T04:14:53;11.20;;;7.60;;
18407;SDS011;9330;52.210;21.174;2023-04-24T04:17:20;10.90;;;7.70;;
18407;SDS011;9330;52.210;21.174;2023-04-24T04:19:47;9.90;;;7.63;;
18407;SDS011;9330;52.210;21.174;2023-04-24T04:22:14;10.73;;;8.40;;
18407;SDS011;9330;52.210;21.174;2023-04-24T04:24:41;9.65;;;7.13;;
18407;SDS011;9330;52.210;21.174;2023-04-24T04:27:09;11.32;;;8.52;;
18407;SDS011;9330;52.210;21.174;2023-04-24T04:29:37;10.05;;;7.25;;
18407;SDS011;9330;52.210;21.174;2023-04-24T04:32:06;8.30;;;7.35;;
18407;SDS011;9330;52.210;21.174;2023-04-24T04:34:33;9.45;;;7.75;;
18407;SDS011;9330;52.210;21.174;2023-04-24T04:37:02;10.73;;;7.82;;
18407;SDS011;9330;52.210;21.174;2023-04-24T04:39:29;9.80;;;7.65;;
18407;SDS011;9330;52.210;21.174;2023-04-24T04:41:56;8.57;;;7.00;;
18407;SDS011;9330;52.210;21.174;2023-04-24T04:44:23;8.73;;;7.78;;
18407;SDS011;9330;52.210;21.174;2023-04-24T04:46:50;8.95;;;8.05;;
18407;SDS011;9330;52.210;21.174;2023-04-24T04:49:22;8.82;;;7.85;;
18407;SDS011;9330;52.210;21.174;2023-04-24T04:51:49;9.45;;;8.30;;
18407;SDS011;9330;52.210;21.174;2023-04-24T04:54:17;10.95;;;8.25;;
18407;SDS011;9330;52.210;21.174;2023-04-24T04:56:43;10.52;;;8.38;;
18407;SDS011;9330;52.210;21.174;2023-04-24T04:59:10;11.38;;;7.65;;
18407;SDS011;9330;52.210;21.174;2023-04-24T05:01:37;10.07;;;8.32;;
18407;SDS011;9330;52.210;21.174;2023-04-24T05:04:05;10.05;;;8.70;;
18407;SDS011;9330;52.210;21.174;2023-04-24T05:06:33;12.68;;;9.27;;
18407;SDS011;9330;52.210;21.174;2023-04-24T05:09:00;9.80;;;8.02;;
18407;SDS011;9330;52.210;21.174;2023-04-24T05:23:11;10.20;;;7.88;;
18407;SDS011;9330;52.210;21.174;2023-04-24T05:25:38;12.35;;;8.32;;
18407;SDS011;9330;52.210;21.174;2023-04-24T05:28:06;14.60;;;8.40;;
18407;SDS011;9330;52.210;21.174;2023-04-24T05:30:33;9.75;;;8.10;;
18407;SDS011;9330;52.210;21.174;2023-04-24T05:33:00;12.35;;;8.38;;
18407;SDS011;9330;52.210;21.174;2023-04-24T05:35:27;10.40;;;8.07;;
18407;SDS011;9330;52.210;21.174;2023-04-24T05:37:54;12.18;;;8.18;;
18407;SDS011;9330;52.210;21.174;2023-04-24T05:40:22;13.10;;;8.15;;
18407;SDS011;9330;52.210;21.174;2023-04-24T05:42:50;11.25;;;7.95;;
18407;SDS011;9330;52.210;21.174;2023-04-24T05:45:16;13.25;;;7.82;;
18407;SDS011;9330;52.210;21.174;2023-04-24T05:47:43;10.95;;;7.68;;
18407;SDS011;9330;52.210;21.174;2023-04-24T05:50:10;10.35;;;7.25;;
18407;SDS011;9330;52.210;21.174;2023-04-24T05:52:38;12.30;;;7.93;;
18407;SDS011;9330;52.210;21.174;2023-04-24T05:55:05;10.20;;;8.07;;
18407;SDS011;9330;52.210;21.174;2023-04-24T05:57:34;10.00;;;8.18;;
18407;SDS011;9330;52.210;21.174;2023-04-24T06:00:00;11.65;;;8.02;;
18407;SDS011;9330;52.210;21.174;2023-04-24T06:02:29;11.63;;;8.02;;
18407;SDS011;9330;52.210;21.174;2023-04-24T06:04:57;9.40;;;7.57;;
18407;SDS011;9330;52.210;21.174;2023-04-24T06:07:25;14.13;;;8.15;;
18407;SDS011;9330;52.210;21.174;2023-04-24T06:09:52;13.73;;;8.25;;
18407;SDS011;9330;52.210;21.174;2023-04-24T06:12:19;11.55;;;7.35;;
18407;SDS011;9330;52.210;21.174;2023-04-24T06:14:47;13.15;;;7.63;;
18407;SDS011;9330;52.210;21.174;2023-04-24T06:17:15;12.93;;;8.70;;
18407;SDS011;9330;52.210;21.174;2023-04-24T06:19:42;12.20;;;7.78;;
18407;SDS011;9330;52.210;21.174;2023-04-24T06:22:09;9.85;;;7.80;;
18407;SDS011;9330;52.210;21.174;2023-04-24T06:24:36;9.93;;;7.88;;
18407;SDS011;9330;52.210;21.174;2023-04-24T06:27:03;12.30;;;8.18;;
18407;SDS011;9330;52.210;21.174;2023-04-24T06:29:30;12.57;;;8.05;;
18407;SDS011;9330;52.210;21.174;2023-04-24T06:31:58;14.27;;;7.88;;
18407;SDS011;9330;52.210;21.174;2023-04-24T06:34:25;8.45;;;7.43;;
18407;SDS011;9330;52.210;21.174;2023-04-24T06:36:52;8.27;;;7.03;;
18407;SDS011;9330;52.210;21.174;2023-04-24T06:39:20;7.72;;;6.95;;
18407;SDS011;9330;52.210;21.174;2023-04-24T06:41:47;8.88;;;7.05;;
18407;SDS011;9330;52.210;21.174;2023-04-24T06:44:14;8.65;;;6.80;;
18407;SDS011;9330;52.210;21.174;2023-04-24T06:46:41;7.97;;;6.82;;
18407;SDS011;9330;52.210;21.174;2023-04-24T06:49:10;8.07;;;6.55;;
18407;SDS011;9330;52.210;21.174;2023-04-24T06:51:36;7.28;;;6.22;;
18407;SDS011;9330;52.210;21.174;2023-04-24T06:54:03;7.30;;;6.03;;
18407;SDS011;9330;52.210;21.174;2023-04-24T06:56:30;7.47;;;6.13;;
18407;SDS011;9330;52.210;21.174;2023-04-24T06:58:59;10.68;;;7.18;;
18407;SDS011;9330;52.210;21.174;2023-04-24T07:01:26;8.35;;;6.50;;
18407;SDS011;9330;52.210;21.174;2023-04-24T07:03:52;8.25;;;6.88;;
18407;SDS011;9330;52.210;21.174;2023-04-24T07:06:21;10.60;;;6.40;;
18407;SDS011;9330;52.210;21.174;2023-04-24T07:08:49;9.10;;;6.50;;
18407;SDS011;9330;52.210;21.174;2023-04-24T07:11:16;7.68;;;6.20;;
18407;SDS011;9330;52.210;21.174;2023-04-24T07:13:43;8.73;;;6.63;;
18407;SDS011;9330;52.210;21.174;2023-04-24T07:16:10;7.75;;;5.95;;
18407;SDS011;9330;52.210;21.174;2023-04-24T07:18:38;6.63;;;5.32;;
18407;SDS011;9330;52.210;21.174;2023-04-24T07:21:05;10.07;;;6.30;;
18407;SDS011;9330;52.210;21.174;2023-04-24T07:23:33;6.85;;;5.80;;
18407;SDS011;9330;52.210;21.174;2023-04-24T07:26:00;7.88;;;5.60;;
18407;SDS011;9330;52.210;21.174;2023-04-24T07:28:27;7.97;;;5.50;;
18407;SDS011;9330;52.210;21.174;2023-04-24T07:30:56;7.93;;;6.47;;
18407;SDS011;9330;52.210;21.174;2023-04-24T07:33:23;10.20;;;6.20;;
18407;SDS011;9330;52.210;21.174;2023-04-24T07:35:50;7.65;;;6.13;;
18407;SDS011;9330;52.210;21.174;2023-04-24T07:38:17;9.38;;;5.40;;
18407;SDS011;9330;52.210;21.174;2023-04-24T07:40:47;7.05;;;6.18;;
18407;SDS011;9330;52.210;21.174;2023-04-24T07:43:14;7.90;;;4.90;;
18407;SDS011;9330;52.210;21.174;2023-04-24T07:45:41;8.35;;;6.15;;
18407;SDS011;9330;52.210;21.174;2023-04-24T07:48:08;7.25;;;5.80;;
18407;SDS011;9330;52.210;21.174;2023-04-24T07:50:35;7.43;;;5.53;;
18407;SDS011;9330;52.210;21.174;2023-04-24T07:53:02;7.82;;;5.85;;
18407;SDS011;9330;52.210;21.174;2023-04-24T07:55:29;6.43;;;5.75;;
18407;SDS011;9330;52.210;21.174;2023-04-24T07:57:57;8.55;;;6.22;;
18407;SDS011;9330;52.210;21.174;2023-04-24T08:00:24;7.13;;;5.40;;
18407;SDS011;9330;52.210;21.174;2023-04-24T08:02:51;7.68;;;5.10;;
18407;SDS011;9330;52.210;21.174;2023-04-24T08:05:18;6.45;;;5.85;;
18407;SDS011;9330;52.210;21.174;2023-04-24T08:07:45;6.45;;;5.45;;
18407;SDS011;9330;52.210;21.174;2023-04-24T08:10:15;6.68;;;5.35;;
18407;SDS011;9330;52.210;21.174;2023-04-24T08:12:42;6.05;;;5.45;;
18407;SDS011;9330;52.210;21.174;2023-04-24T08:15:10;7.00;;;5.53;;
18407;SDS011;9330;52.210;21.174;2023-04-24T08:17:37;7.55;;;5.63;;
18407;SDS011;9330;52.210;21.174;2023-04-24T08:20:04;7.10;;;5.43;;
18407;SDS011;9330;52.210;21.174;2023-04-24T08:22:35;6.20;;;5.60;;
18407;SDS011;9330;52.210;21.174;2023-04-24T08:25:02;7.22;;;5.68;;
18407;SDS011;9330;52.210;21.174;2023-04-24T08:27:29;9.30;;;5.78;;
18407;SDS011;9330;52.210;21.174;2023-04-24T08:29:56;6.70;;;5.55;;
18407;SDS011;9330;52.210;21.174;2023-04-24T08:32:25;6.57;;;5.82;;
18407;SDS011;9330;52.210;21.174;2023-04-24T08:34:53;5.95;;;5.35;;
18407;SDS011;9330;52.210;21.174;2023-04-24T08:37:21;9.02;;;5.15;;
18407;SDS011;9330;52.210;21.174;2023-04-24T08:39:48;8.02;;;5.10;;
18407;SDS011;9330;52.210;21.174;2023-04-24T08:42:15;7.72;;;5.88;;
18407;SDS011;9330;52.210;21.174;2023-04-24T08:44:43;7.18;;;5.75;;
18407;SDS011;9330;52.210;21.174;2023-04-24T08:47:11;7.90;;;5.68;;
18407;SDS011;9330;52.210;21.174;2023-04-24T08:49:39;7.70;;;5.85;;
18407;SDS011;9330;52.210;21.174;2023-04-24T08:52:06;7.00;;;5.68;;
18407;SDS011;9330;52.210;21.174;2023-04-24T08:54:33;6.65;;;5.57;;
18407;SDS011;9330;52.210;21.174;2023-04-24T08:57:02;7.88;;;5.85;;
18407;SDS011;9330;52.210;21.174;2023-04-24T08:59:29;7.88;;;6.38;;
18407;SDS011;9330;52.210;21.174;2023-04-24T09:01:57;9.93;;;6.50;;
18407;SDS011;9330;52.210;21.174;2023-04-24T09:04:24;9.77;;;7.22;;
18407;SDS011;9330;52.210;21.174;2023-04-24T09:06:53;11.82;;;6.57;;
18407;SDS011;9330;52.210;21.174;2023-04-24T09:09:22;8.63;;;5.90;;
18407;SDS011;9330;52.210;21.174;2023-04-24T09:11:50;10.52;;;6.30;;
18407;SDS011;9330;52.210;21.174;2023-04-24T09:14:18;7.50;;;6.22;;
18407;SDS011;9330;52.210;21.174;2023-04-24T09:16:45;6.70;;;6.00;;
18407;SDS011;9330;52.210;21.174;2023-04-24T09:19:12;7.18;;;5.65;;
18407;SDS011;9330;52.210;21.174;2023-04-24T09:21:39;5.95;;;5.22;;
18407;SDS011;9330;52.210;21.174;2023-04-24T09:24:16;9.80;;;5.65;;
18407;SDS011;9330;52.210;21.174;2023-04-24T09:26:45;9.43;;;5.43;;
18407;SDS011;9330;52.210;21.174;2023-04-24T09:29:14;14.43;;;6.45;;
18407;SDS011;9330;52.210;21.174;2023-04-24T09:31:41;6.45;;;5.28;;
18407;SDS011;9330;52.210;21.174;2023-04-24T09:34:08;6.57;;;4.90;;
18407;SDS011;9330;52.210;21.174;2023-04-24T09:36:37;7.35;;;5.10;;
18407;SDS011;9330;52.210;21.174;2023-04-24T09:39:06;10.40;;;5.72;;
18407;SDS011;9330;52.210;21.174;2023-04-24T09:41:36;6.20;;;4.82;;
18407;SDS011;9330;52.210;21.174;2023-04-24T09:44:11;6.05;;;5.38;;
18407;SDS011;9330;52.210;21.174;2023-04-24T09:46:39;7.05;;;5.05;;
18407;SDS011;9330;52.210;21.174;2023-04-24T09:49:12;10.82;;;5.57;;
18407;SDS011;9330;52.210;21.174;2023-04-24T09:51:40;7.13;;;5.15;;
18407;SDS011;9330;52.210;21.174;2023-04-24T09:54:13;4.82;;;4.35;;
18407;SDS011;9330;52.210;21.174;2023-04-24T09:56:42;7.00;;;4.65;;
18407;SDS011;9330;52.210;21.174;2023-04-24T09:59:10;5.30;;;4.13;;
18407;SDS011;9330;52.210;21.174;2023-04-24T10:01:37;7.15;;;4.47;;
18407;SDS011;9330;52.210;21.174;2023-04-24T10:04:14;5.22;;;4.43;;
18407;SDS011;9330;52.210;21.174;2023-04-24T10:06:42;6.45;;;5.50;;
18407;SDS011;9330;52.210;21.174;2023-04-24T10:09:10;6.63;;;5.85;;
18407;SDS011;9330;52.210;21.174;2023-04-24T10:11:41;6.05;;;5.45;;
18407;SDS011;9330;52.210;21.174;2023-04-24T10:14:10;5.40;;;4.80;;
18407;SDS011;9330;52.210;21.174;2023-04-24T10:16:39;5.10;;;4.45;;
18407;SDS011;9330;52.210;21.174;2023-04-24T10:19:07;5.68;;;5.07;;
18407;SDS011;9330;52.210;21.174;2023-04-24T10:21:34;6.78;;;4.95;;
18407;SDS011;9330;52.210;21.174;2023-04-24T10:24:03;8.13;;;5.05;;
18407;SDS011;9330;52.210;21.174;2023-04-24T10:26:34;6.03;;;4.93;;
18407;SDS011;9330;52.210;21.174;2023-04-24T10:29:02;5.70;;;5.07;;
18407;SDS011;9330;52.210;21.174;2023-04-24T10:31:34;6.22;;;5.43;;
18407;SDS011;9330;52.210;21.174;2023-04-24T10:34:02;8.70;;;4.40;;
18407;SDS011;9330;52.210;21.174;2023-04-24T10:36:30;7.60;;;5.13;;
18407;SDS011;9330;52.210;21.174;2023-04-24T10:38:59;6.30;;;5.40;;
18407;SDS011;9330;52.210;21.174;2023-04-24T10:41:28;6.57;;;5.10;;
18407;SDS011;9330;52.210;21.174;2023-04-24T10:44:08;5.45;;;4.93;;
18407;SDS011;9330;52.210;21.174;2023-04-24T10:46:36;5.88;;;5.03;;
18407;SDS011;9330;52.210;21.174;2023-04-24T10:49:03;6.45;;;5.35;;
18407;SDS011;9330;52.210;21.174;2023-04-24T10:51:44;8.32;;;5.30;;
18407;SDS011;9330;52.210;21.174;2023-04-24T10:54:21;7.13;;;4.78;;
18407;SDS011;9330;52.210;21.174;2023-04-24T10:56:49;6.13;;;4.70;;
18407;SDS011;9330;52.210;21.174;2023-04-24T10:59:25;6.50;;;4.63;;
18407;SDS011;9330;52.210;21.174;2023-04-24T11:01:53;5.03;;;4.20;;
18407;SDS011;9330;52.210;21.174;2023-04-24T11:04:28;5.22;;;4.72;;
18407;SDS011;9330;52.210;21.174;2023-04-24T11:06:56;4.90;;;4.40;;
18407;SDS011;9330;52.210;21.174;2023-04-24T11:09:26;5.50;;;4.63;;
18407;SDS011;9330;52.210;21.174;2023-04-24T11:12:02;4.75;;;4.35;;
18407;SDS011;9330;52.210;21.174;2023-04-24T11:14:35;6.40;;;4.60;;
18407;SDS011;9330;52.210;21.174;2023-04-24T11:17:28;5.72;;;4.50;;
18407;SDS011;9330;52.210;21.174;2023-04-24T11:20:00;5.93;;;4.00;;
18407;SDS011;9330;52.210;21.174;2023-04-24T11:22:28;5.45;;;4.60;;
18407;SDS011;9330;52.210;21.174;2023-04-24T11:24:59;4.97;;;4.10;;
18407;SDS011;9330;52.210;21.174;2023-04-24T11:27:28;6.10;;;4.28;;
18407;SDS011;9330;52.210;21.174;2023-04-24T11:30:02;6.95;;;4.10;;
18407;SDS011;9330;52.210;21.174;2023-04-24T11:32:30;6.88;;;4.00;;
18407;SDS011;9330;52.210;21.174;2023-04-24T11:35:02;7.22;;;4.35;;
18407;SDS011;9330;52.210;21.174;2023-04-24T11:37:33;5.00;;;4.45;;
18407;SDS011;9330;52.210;21.174;2023-04-24T11:40:02;4.40;;;3.67;;
18407;SDS011;9330;52.210;21.174;2023-04-24T11:42:33;4.80;;;3.88;;
18407;SDS011;9330;52.210;21.174;2023-04-24T11:45:06;4.20;;;3.80;;
18407;SDS011;9330;52.210;21.174;2023-04-24T11:47:34;4.47;;;4.07;;
18407;SDS011;9330;52.210;21.174;2023-04-24T11:50:01;5.60;;;3.78;;
18407;SDS011;9330;52.210;21.174;2023-04-24T11:52:29;6.22;;;3.75;;
18407;SDS011;9330;52.210;21.174;2023-04-24T11:54:56;5.00;;;4.13;;
18407;SDS011;9330;52.210;21.174;2023-04-24T11:57:23;4.43;;;4.03;;
18407;SDS011;9330;52.210;21.174;2023-04-24T11:59:54;6.55;;;4.13;;
18407;SDS011;9330;52.210;21.174;2023-04-24T12:02:25;4.40;;;4.00;;
18407;SDS011;9330;52.210;21.174;2023-04-24T12:04:53;3.97;;;3.58;;
18407;SDS011;9330;52.210;21.174;2023-04-24T12:07:20;4.50;;;4.10;;
18407;SDS011;9330;52.210;21.174;2023-04-24T12:09:50;4.65;;;4.25;;
18407;SDS011;9330;52.210;21.174;2023-04-24T12:12:22;5.88;;;4.00;;
18407;SDS011;9330;52.210;21.174;2023-04-24T12:14:52;4.78;;;4.00;;
18407;SDS011;9330;52.210;21.174;2023-04-24T12:17:25;21.15;;;6.25;;
18407;SDS011;9330;52.210;21.174;2023-04-24T12:19:56;16.73;;;5.85;;
18407;SDS011;9330;52.210;21.174;2023-04-24T12:22:25;5.90;;;4.32;;
18407;SDS011;9330;52.210;21.174;2023-04-24T12:24:56;6.15;;;4.15;;
18407;SDS011;9330;52.210;21.174;2023-04-24T12:27:24;4.72;;;4.22;;
18407;SDS011;9330;52.210;21.174;2023-04-24T12:29:51;4.68;;;4.25;;
18407;SDS011;9330;52.210;21.174;2023-04-24T12:32:19;4.20;;;3.60;;
18407;SDS011;9330;52.210;21.174;2023-04-24T12:34:47;5.95;;;3.70;;
18407;SDS011;9330;52.210;21.174;2023-04-24T12:48:47;6.32;;;3.90;;
18407;SDS011;9330;52.210;21.174;2023-04-24T12:51:14;5.07;;;4.20;;
18407;SDS011;9330;52.210;21.174;2023-04-24T12:53:40;9.45;;;4.43;;
18407;SDS011;9330;52.210;21.174;2023-04-24T12:56:07;26.00;;;5.47;;
18407;SDS011;9330;52.210;21.174;2023-04-24T12:58:34;11.27;;;3.97;;
18407;SDS011;9330;52.210;21.174;2023-04-24T13:01:01;19.92;;;4.50;;
18407;SDS011;9330;52.210;21.174;2023-04-24T13:03:28;9.30;;;3.33;;
18407;SDS011;9330;52.210;21.174;2023-04-24T13:05:56;10.35;;;3.78;;
18407;SDS011;9330;52.210;21.174;2023-04-24T13:08:23;12.98;;;3.97;;
18407;SDS011;9330;52.210;21.174;2023-04-24T13:10:50;15.48;;;4.45;;
18407;SDS011;9330;52.210;21.174;2023-04-24T13:13:18;6.35;;;3.50;;
18407;SDS011;9330;52.210;21.174;2023-04-24T13:15:45;10.88;;;4.00;;
18407;SDS011;9330;52.210;21.174;2023-04-24T13:18:12;9.75;;;4.57;;
18407;SDS011;9330;52.210;21.174;2023-04-24T13:20:39;15.50;;;4.20;;
18407;SDS011;9330;52.210;21.174;2023-04-24T13:23:08;8.57;;;3.38;;
18407;SDS011;9330;52.210;21.174;2023-04-24T13:25:35;7.13;;;3.03;;
18407;SDS011;9330;52.210;21.174;2023-04-24T13:28:04;9.88;;;3.72;;
18407;SDS011;9330;52.210;21.174;2023-04-24T13:30:31;3.25;;;2.95;;
18407;SDS011;9330;52.210;21.174;2023-04-24T13:32:59;4.85;;;3.28;;
18407;SDS011;9330;52.210;21.174;2023-04-24T13:35:26;5.63;;;2.90;;
18407;SDS011;9330;52.210;21.174;2023-04-24T13:37:53;4.32;;;3.20;;
18407;SDS011;9330;52.210;21.174;2023-04-24T13:40:22;4.20;;;2.85;;
18407;SDS011;9330;52.210;21.174;2023-04-24T13:42:49;5.95;;;3.30;;
18407;SDS011;9330;52.210;21.174;2023-04-24T13:45:16;5.93;;;3.88;;
18407;SDS011;9330;52.210;21.174;2023-04-24T13:47:43;4.35;;;3.33;;
18407;SDS011;9330;52.210;21.174;2023-04-24T13:50:11;4.72;;;3.10;;
18407;SDS011;9330;52.210;21.174;2023-04-24T13:52:38;3.33;;;2.97;;
18407;SDS011;9330;52.210;21.174;2023-04-24T13:55:06;4.35;;;3.13;;
18407;SDS011;9330;52.210;21.174;2023-04-24T13:57:34;5.28;;;2.95;;
18407;SDS011;9330;52.210;21.174;2023-04-24T14:00:02;3.22;;;2.60;;
18407;SDS011;9330;52.210;21.174;2023-04-24T14:02:29;2.90;;;2.60;;
18407;SDS011;9330;52.210;21.174;2023-04-24T14:04:56;3.53;;;2.50;;
18407;SDS011;9330;52.210;21.174;2023-04-24T14:07:23;4.20;;;2.90;;
18407;SDS011;9330;52.210;21.174;2023-04-24T14:09:50;2.85;;;2.53;;
18407;SDS011;9330;52.210;21.174;2023-04-24T14:12:17;4.53;;;3.00;;
18407;SDS011;9330;52.210;21.174;2023-04-24T14:14:46;6.75;;;3.15;;
18407;SDS011;9330;52.210;21.174;2023-04-24T14:17:13;3.75;;;2.85;;
18407;SDS011;9330;52.210;21.174;2023-04-24T14:19:40;4.00;;;2.75;;
18407;SDS011;9330;52.210;21.174;2023-04-24T14:22:07;3.65;;;2.58;;
18407;SDS011;9330;52.210;21.174;2023-04-24T14:24:33;3.53;;;2.50;;
18407;SDS011;9330;52.210;21.174;2023-04-24T14:27:01;5.38;;;2.40;;
18407;SDS011;9330;52.210;21.174;2023-04-24T14:29:28;3.75;;;2.65;;
18407;SDS011;9330;52.210;21.174;2023-04-24T14:31:56;4.22;;;2.53;;
18407;SDS011;9330;52.210;21.174;2023-04-24T14:34:23;5.32;;;3.13;;
18407;SDS011;9330;52.210;21.174;2023-04-24T14:36:50;4.03;;;2.92;;
18407;SDS011;9330;52.210;21.174;2023-04-24T14:39:17;4.00;;;2.70;;
18407;SDS011;9330;52.210;21.174;2023-04-24T14:41:43;4.25;;;2.60;;
18407;SDS011;9330;52.210;21.174;2023-04-24T14:44:10;3.50;;;3.20;;
18407;SDS011;9330;52.210;21.174;2023-04-24T14:46:37;3.10;;;2.80;;
18407;SDS011;9330;52.210;21.174;2023-04-24T14:49:05;3.45;;;3.05;;
18407;SDS011;9330;52.210;21.174;2023-04-24T14:51:34;4.38;;;2.75;;
18407;SDS011;9330;52.210;21.174;2023-04-24T14:54:01;5.15;;;3.25;;
18407;SDS011;9330;52.210;21.174;2023-04-24T14:56:28;5.32;;;2.90;;
18407;SDS011;9330;52.210;21.174;2023-04-24T14:58:55;3.90;;;3.17;;
18407;SDS011;9330;52.210;21.174;2023-04-24T15:01:22;6.32;;;3.30;;
18407;SDS011;9330;52.210;21.174;2023-04-24T15:03:50;3.33;;;2.80;;
18407;SDS011;9330;52.210;21.174;2023-04-24T15:06:18;5.88;;;4.03;;
18407;SDS011;9330;52.210;21.174;2023-04-24T15:08:45;5.95;;;4.05;;
18407;SDS011;9330;52.210;21.174;2023-04-24T15:11:12;4.00;;;3.55;;
18407;SDS011;9330;52.210;21.174;2023-04-24T15:13:39;4.05;;;3.28;;